Time;durP1;ratioP1;P1;durP2;ratioP2;P2;SDS_P1;SDS_P2;PMS_P1;PMS_P2;Temp;Humidity;BMP_temperature;BMP_pressure;BME280_temperature;BME280_humidity;BME280_pressure;Samples;Min_cycle;Max_cycle;Signal;HPM_P1;HPM_P2
2021/05/13 06:14:17;;;;;;;92.60;9.60;;;;;;;23.60;39.77;98459.51;1861513;75;22684;-64
2021/05/13 06:16:44;;;;;;;140.75;15.25;;;;;;;23.70;39.26;98468.05;1805633;77;21055;-64
2021/05/13 06:19:11;;;;;;;28.77;4.28;;;;;;;23.52;39.07;98471.09;1814377;77;22328;-64
2021/05/13 06:21:39;;;;;;;32.90;4.70;;;;;;;23.54;39.70;98481.06;1811121;77;21062;-65
2021/05/13 06:24:11;;;;;;;21.85;3.40;;;;;;;23.76;39.13;98473.98;1808801;77;20956;-64
2021/05/13 06:26:39;;;;;;;11.35;3.33;;;;;;;23.88;39.40;98468.47;1808281;77;21030;-66
2021/05/13 06:29:08;;;;;;;14.47;3.40;;;;;;;24.18;38.95;98465.72;1806667;77;21665;-64
2021/05/13 06:31:36;;;;;;;40.58;5.40;;;;;;;24.14;38.76;98469.77;1808244;77;21823;-64
2021/05/13 06:34:04;;;;;;;23.60;3.37;;;;;;;24.04;38.88;98474.59;1805501;77;21605;-64
2021/05/13 06:36:31;;;;;;;13.85;2.95;;;;;;;23.97;38.82;98463.02;1809421;77;21012;-64
2021/05/13 06:38:58;;;;;;;12.68;2.65;;;;;;;24.03;38.72;98468.92;1800460;77;21850;-64
2021/05/13 06:41:25;;;;;;;17.10;4.12;;;;;;;24.33;38.89;98466.46;1810701;77;21055;-64
2021/05/13 06:43:52;;;;;;;14.15;2.75;;;;;;;24.52;38.61;98461.53;1806568;77;21059;-64
2021/05/13 06:46:21;;;;;;;9.93;3.47;;;;;;;24.76;38.42;98461.12;1770125;78;21197;-64
2021/05/13 06:48:47;;;;;;;12.70;3.10;;;;;;;24.83;38.27;98459.00;1827601;77;20939;-64
2021/05/13 06:51:14;;;;;;;19.12;3.55;;;;;;;24.89;37.67;98462.22;1803278;77;21553;-64
2021/05/13 06:53:40;;;;;;;19.32;3.25;;;;;;;24.65;37.33;98456.31;1803225;77;21651;-65
2021/05/13 06:56:07;;;;;;;22.85;3.35;;;;;;;24.28;37.35;98458.23;1813053;77;21090;-65
2021/05/13 06:58:33;;;;;;;;;;;;;;;24.18;37.27;98455.05;1809096;77;20984;-64
2021/05/13 07:01:00;;;;;;;62.13;5.55;;;;;;;23.97;37.34;98460.36;1806354;77;20305;-64
2021/05/13 07:03:26;;;;;;;;;;;;;;;24.07;37.27;98460.88;1805656;77;21010;-64
2021/05/13 07:05:53;;;;;;;26.02;3.75;;;;;;;23.96;36.83;98461.38;1808167;77;20239;-66
2021/05/13 07:08:20;;;;;;;;;;;;;;;23.80;37.25;98456.59;1801791;77;21477;-64
2021/05/13 07:10:46;;;;;;;20.77;3.40;;;;;;;23.93;37.01;98456.44;1805939;77;20148;-63
2021/05/13 07:13:12;;;;;;;;;;;;;;;23.92;36.79;98452.95;1802692;77;21118;-64
2021/05/13 07:15:44;;;;;;;18.25;3.40;;;;;;;23.71;37.11;98457.72;1807958;77;20544;-65
2021/05/13 07:18:14;;;;;;;14.30;3.15;;;;;;;23.69;36.91;98450.38;1766975;79;21054;-64
2021/05/13 07:20:42;;;;;;;16.15;2.85;;;;;;;23.57;37.10;98447.89;1759517;79;21070;-63
2021/05/13 07:23:10;;;;;;;18.90;3.12;;;;;;;23.42;37.21;98450.59;1755815;79;21040;-64
2021/05/13 07:25:37;;;;;;;10.35;2.55;;;;;;;23.06;36.88;98446.52;1761847;79;21724;-64
2021/05/13 07:28:05;;;;;;;12.20;2.33;;;;;;;22.69;36.99;98453.53;1762624;79;21003;-63
2021/05/13 07:30:31;;;;;;;9.08;2.60;;;;;;;22.54;37.41;98452.97;1764555;79;21060;-63
2021/05/13 07:32:59;;;;;;;13.98;2.50;;;;;;;22.51;37.00;98449.84;1764292;79;21857;-63
2021/05/13 07:35:26;;;;;;;10.18;2.10;;;;;;;22.15;37.11;98451.76;1725078;81;21074;-62
2021/05/13 07:37:53;;;;;;;16.62;3.05;;;;;;;21.80;37.05;98454.50;1765761;79;20991;-63
2021/05/13 07:40:23;;;;;;;14.83;2.15;;;;;;;21.58;37.10;98448.95;1768218;79;21121;-62
2021/05/13 07:42:50;;;;;;;16.15;2.83;;;;;;;21.43;37.25;98449.38;1735743;80;21031;-62
2021/05/13 07:45:18;;;;;;;54.18;6.70;;;;;;;21.30;37.33;98451.72;1744448;80;21420;-62
2021/05/13 07:47:45;;;;;;;32.53;4.95;;;;;;;21.27;37.41;98450.73;1765527;79;20957;-61
2021/05/13 07:50:17;;;;;;;13.43;2.60;;;;;;;21.13;37.44;98449.11;1731718;81;21059;-62
2021/05/13 07:52:46;;;;;;;36.25;3.75;;;;;;;21.09;37.43;98445.16;1762802;79;20983;-62
2021/05/13 07:55:14;;;;;;;8.00;2.08;;;;;;;21.10;37.54;98444.15;1709676;81;21018;-62
2021/05/13 07:57:48;;;;;;;19.45;2.80;;;;;;;20.97;37.72;98449.98;1771063;79;21791;-62
2021/05/13 08:00:14;;;;;;;7.62;1.70;;;;;;;21.03;37.96;98449.80;1764997;78;21023;-62
2021/05/13 08:02:41;;;;;;;16.62;3.05;;;;;;;21.01;37.52;98445.18;1770245;79;21026;-61
2021/05/13 08:05:09;;;;;;;;;;;;;;;20.94;37.42;98448.17;1766246;79;21611;-61
2021/05/13 08:07:37;;;;;;;7.40;1.92;;;;;;;20.86;37.48;98444.21;1736383;81;20201;-62
2021/05/13 08:10:06;;;;;;;10.53;1.82;;;;;;;20.73;37.34;98440.27;1749645;80;21046;-61
2021/05/13 08:12:34;;;;;;;14.15;2.25;;;;;;;20.61;37.51;98444.24;1743837;80;21680;-62
2021/05/13 08:15:01;;;;;;;17.00;2.22;;;;;;;20.56;37.43;98439.97;1746539;80;21087;-61
2021/05/13 08:17:28;;;;;;;19.87;2.27;;;;;;;20.58;37.71;98437.95;1749673;80;21968;-61
2021/05/13 08:19:54;;;;;;;17.80;2.12;;;;;;;20.73;38.07;98437.61;1747011;80;21099;-61
2021/05/13 08:22:21;;;;;;;8.95;1.62;;;;;;;20.87;38.07;98438.75;1747448;80;21037;-61
2021/05/13 08:24:48;;;;;;;15.28;2.55;;;;;;;20.88;37.55;98436.41;1749544;79;21104;-61
2021/05/13 08:27:16;;;;;;;8.05;2.08;;;;;;;20.77;37.90;98436.27;1725011;80;21113;-61
2021/05/13 08:29:42;;;;;;;12.95;1.87;;;;;;;20.90;37.96;98428.30;1759372;80;20960;-61
2021/05/13 08:32:10;;;;;;;14.95;2.70;;;;;;;20.92;37.67;98424.48;1757031;80;22002;-61
2021/05/13 08:34:39;;;;;;;53.80;4.62;;;;;;;20.87;37.84;98425.98;1752505;80;21774;-61
2021/05/13 08:37:06;;;;;;;18.60;2.22;;;;;;;20.94;37.87;98428.27;1752247;80;21041;-61
2021/05/13 08:39:34;;;;;;;13.20;2.25;;;;;;;20.91;37.88;98425.96;1751275;80;21575;-61
2021/05/13 08:42:02;;;;;;;11.48;1.47;;;;;;;20.97;38.06;98417.31;1758698;80;21056;-62
2021/05/13 08:44:31;;;;;;;17.65;2.40;;;;;;;21.06;37.74;98418.97;1754760;80;20972;-61
2021/05/13 08:46:59;;;;;;;7.90;1.40;;;;;;;20.97;37.34;98415.48;1755683;80;21102;-61
2021/05/13 08:49:27;;;;;;;9.15;1.87;;;;;;;20.89;37.34;98416.01;1742723;80;20978;-62
2021/05/13 08:51:55;;;;;;;9.03;1.32;;;;;;;20.92;37.52;98409.03;1753072;80;21502;-62
2021/05/13 08:54:23;;;;;;;11.33;1.52;;;;;;;20.94;36.93;98412.35;1748834;80;22266;-61
2021/05/13 08:56:51;;;;;;;12.47;3.33;;;;;;;20.89;36.78;98409.38;1750346;80;21045;-61
2021/05/13 08:59:19;;;;;;;9.73;1.47;;;;;;;20.92;36.73;98409.03;1750736;80;21874;-61
2021/05/13 09:01:59;;;;;;;10.55;2.22;;;;;;;20.95;36.21;98403.41;1749344;79;21063;-61
2021/05/13 09:04:39;;;;;;;14.85;1.92;;;;;;;20.96;36.56;98411.69;1747111;80;21032;-61
2021/05/13 09:07:16;;;;;;;5.80;1.22;;;;;;;21.00;36.15;98399.72;1748694;80;21099;-62
2021/05/13 09:10:06;;;;;;;21.97;2.12;;;;;;;21.00;36.05;98404.56;1754659;80;21614;-61
2021/05/13 09:12:37;;;;;;;14.80;1.62;;;;;;;21.10;36.21;98396.38;1747342;80;21619;-62
2021/05/13 09:15:13;;;;;;;13.20;2.35;;;;;;;21.16;35.25;98390.38;1752542;80;21100;-63
2021/05/13 09:17:43;;;;;;;16.52;1.15;;;;;;;21.07;35.41;98388.77;1757313;80;21611;-63
2021/05/13 09:20:26;;;;;;;9.68;1.12;;;;;;;21.15;35.59;98388.73;1760773;80;21071;-62
2021/05/13 09:23:12;;;;;;;5.20;1.02;;;;;;;21.17;35.64;98392.05;1753004;80;21602;-62
2021/05/13 09:25:39;;;;;;;9.60;1.33;;;;;;;21.24;35.27;98385.03;1749183;80;21569;-62
2021/05/13 09:28:07;;;;;;;24.55;2.22;;;;;;;21.20;35.22;98386.39;1750298;80;21006;-62
2021/05/13 09:30:36;;;;;;;4.17;1.45;;;;;;;21.21;35.15;98388.03;1743752;80;21597;-62
2021/05/13 09:33:09;;;;;;;10.58;1.60;;;;;;;21.17;34.99;98392.05;1743937;80;21014;-62
2021/05/13 09:35:37;;;;;;;14.55;1.75;;;;;;;21.21;35.36;98382.73;1750947;80;21182;-62
2021/05/13 09:38:08;;;;;;;10.58;1.50;;;;;;;21.40;34.98;98387.33;1740774;80;22704;-61
2021/05/13 09:40:38;;;;;;;5.97;1.27;;;;;;;21.42;34.95;98374.69;1747657;80;21055;-62
2021/05/13 09:43:20;;;;;;;12.25;1.80;;;;;;;21.55;34.97;98376.28;1753541;80;21137;-62
2021/05/13 09:45:51;;;;;;;4.45;1.10;;;;;;;21.58;35.03;98373.27;1724489;81;21028;-62
2021/05/13 09:48:41;;;;;;;3.15;1.00;;;;;;;21.61;34.71;98372.91;1694245;81;21043;-62
2021/05/13 09:51:33;;;;;;;5.37;1.75;;;;;;;21.51;35.03;98367.02;1724737;81;21664;-62
2021/05/13 09:54:12;;;;;;;10.38;1.62;;;;;;;21.67;35.19;98370.05;1701612;82;21177;-61
2021/05/13 09:56:49;;;;;;;6.12;1.30;;;;;;;21.88;35.16;98365.44;1727915;81;22083;-62
2021/05/13 09:59:35;;;;;;;2.27;1.10;;;;;;;21.84;34.62;98370.77;1692248;83;21027;-63
2021/05/13 10:02:08;;;;;;;19.85;1.42;;;;;;;21.71;34.41;98373.20;1702869;82;24777;-62
2021/05/13 10:04:35;;;;;;;7.97;1.70;;;;;;;21.51;33.68;98360.38;1702181;82;21237;-62
2021/05/13 10:07:02;;;;;;;6.62;1.60;;;;;;;21.47;34.23;98359.06;1725310;81;21103;-63
2021/05/13 10:09:31;;;;;;;4.80;1.10;;;;;;;21.56;34.41;98354.02;1692684;83;21114;-62
2021/05/13 10:11:59;;;;;;;28.90;3.15;;;;;;;21.53;33.99;98351.72;1727354;80;20972;-62
2021/05/13 10:14:29;;;;;;;121.42;11.08;;;;;;;21.52;33.71;98356.71;1727460;80;21173;-62
2021/05/13 10:17:00;;;;;;;10.60;1.40;;;;;;;21.41;33.32;98359.77;1700190;82;21066;-62
2021/05/13 10:19:49;;;;;;;3.10;1.00;;;;;;;21.33;33.23;98355.29;1728615;81;21212;-62
2021/05/13 10:22:17;;;;;;;19.70;2.62;;;;;;;21.25;33.09;98350.02;1727157;81;20991;-61
2021/05/13 10:24:44;;;;;;;11.18;1.60;;;;;;;21.21;33.10;98351.38;1747319;81;21638;-61
2021/05/13 10:27:22;;;;;;;1.95;0.88;;;;;;;21.19;32.93;98357.36;1732959;80;20952;-62
2021/05/13 10:30:02;;;;;;;31.60;3.17;;;;;;;21.18;33.19;98343.27;1728976;80;22358;-62
2021/05/13 10:32:32;;;;;;;2.72;1.00;;;;;;;21.36;33.39;98344.83;1765454;80;21031;-61
2021/05/13 10:35:10;;;;;;;3.87;1.15;;;;;;;21.29;32.86;98338.58;1726561;83;21003;-61
2021/05/13 10:37:41;;;;;;;10.95;1.60;;;;;;;21.17;32.47;98337.64;1734311;81;21142;-61
2021/05/13 10:40:24;;;;;;;7.25;1.05;;;;;;;21.14;32.35;98339.28;1744917;81;21627;-61
2021/05/13 10:43:04;;;;;;;3.35;1.27;;;;;;;21.18;32.08;98345.09;1745635;81;21593;-61
2021/05/13 10:45:38;;;;;;;4.58;1.10;;;;;;;21.16;32.54;98341.78;1745810;80;21751;-62
2021/05/13 10:48:26;;;;;;;4.87;1.10;;;;;;;21.15;32.42;98338.31;1745744;81;21013;-62
2021/05/13 10:51:01;;;;;;;6.33;0.72;;;;;;;21.09;32.44;98340.34;1744819;81;21095;-61
2021/05/13 10:53:47;;;;;;;6.25;1.55;;;;;;;21.11;32.46;98338.31;1726210;81;21027;-62
2021/05/13 10:56:30;;;;;;;5.95;0.93;;;;;;;21.01;32.70;98334.56;1764632;80;21069;-61
2021/05/13 10:59:08;;;;;;;60.58;5.35;;;;;;;21.10;32.35;98339.33;1725039;81;20988;-61
2021/05/13 11:01:53;;;;;;;2.80;0.90;;;;;;;21.06;32.69;98336.70;1737244;81;21051;-63
2021/05/13 11:04:28;;;;;;;11.33;1.55;;;;;;;21.09;32.61;98332.37;1731195;81;21569;-61
2021/05/13 11:06:57;;;;;;;11.22;1.55;;;;;;;21.24;32.93;98338.58;1735446;81;20955;-61
2021/05/13 11:11:00;;;;;;;3.80;1.00;;;;;;;21.22;32.18;98338.43;1824345;75;22734;-62
2021/05/13 11:13:43;;;;;;;4.87;1.40;;;;;;;21.12;32.01;98339.98;1795910;77;21001;-62
2021/05/13 11:16:53;;;;;;;3.92;0.93;;;;;;;20.97;32.25;98341.70;1798271;78;21671;-61
2021/05/13 11:19:18;;;;;;;5.47;1.22;;;;;;;20.96;32.36;98333.42;1704228;81;21057;-62
2021/05/13 11:22:05;;;;;;;2.80;1.25;;;;;;;20.87;32.26;98331.81;1708421;80;21620;-62
2021/05/13 11:24:34;;;;;;;1.80;0.80;;;;;;;20.94;32.35;98330.10;1708982;81;21141;-64
2021/05/13 11:27:03;;;;;;;8.70;1.07;;;;;;;20.96;32.35;98322.81;1709455;81;21191;-64
2021/05/13 11:29:50;;;;;;;24.52;2.98;;;;;;;20.94;32.21;98328.27;1665767;83;21066;-64
2021/05/13 11:32:18;;;;;;;7.50;0.90;;;;;;;20.95;32.16;98323.81;1708311;81;21138;-64
2021/05/13 11:34:47;;;;;;;2.80;0.90;;;;;;;21.06;32.33;98335.38;1683773;82;22099;-64
2021/05/13 11:37:38;;;;;;;4.58;1.10;;;;;;;21.10;32.11;98335.34;1706427;82;21821;-64
2021/05/13 11:40:27;;;;;;;5.22;1.17;;;;;;;21.05;31.70;98327.06;1707211;81;21907;-65
2021/05/13 11:43:21;;;;;;;5.12;1.12;;;;;;;20.89;31.54;98335.09;1662366;84;21079;-64
2021/05/13 11:45:47;;;;;;;7.33;0.90;;;;;;;20.96;31.80;98325.46;1704237;81;21136;-65
2021/05/13 11:48:33;;;;;;;2.65;0.82;;;;;;;20.97;31.72;98324.45;1710371;81;21764;-63
2021/05/13 11:51:13;;;;;;;3.90;1.35;;;;;;;21.02;31.39;98315.48;1699329;82;21013;-64
2021/05/13 11:53:43;;;;;;;2.80;1.00;;;;;;;21.01;31.46;98321.29;1697916;81;21094;-64
2021/05/13 11:59:01;;;;;;;1.47;0.60;;;;;;;20.94;31.17;98312.86;1705880;81;21056;-64
2021/05/13 12:01:43;;;;;;;3.98;0.75;;;;;;;20.94;31.09;98308.87;1701861;82;21100;-64
2021/05/13 12:04:17;;;;;;;8.45;2.12;;;;;;;20.92;30.65;98316.17;1709735;82;21015;-64
2021/05/13 12:07:18;;;;;;;4.40;0.80;;;;;;;20.89;31.10;98313.88;1703158;82;21872;-64
2021/05/13 12:09:49;;;;;;;10.13;2.00;;;;;;;20.92;31.14;98309.55;1746565;80;21114;-64
2021/05/13 12:12:21;;;;;;;4.92;1.47;;;;;;;21.05;31.44;98303.19;1742393;80;20999;-64
2021/05/13 12:14:48;;;;;;;5.55;1.05;;;;;;;21.15;31.61;98316.25;1755174;80;21169;-64
2021/05/13 12:17:14;;;;;;;5.50;1.42;;;;;;;21.14;31.38;98306.11;1745673;80;21039;-64
2021/05/13 12:19:44;;;;;;;2.92;1.20;;;;;;;21.14;31.87;98302.13;1740794;80;26776;-64
2021/05/13 12:22:13;;;;;;;9.45;1.57;;;;;;;21.14;32.02;98302.13;1745719;80;21101;-65
2021/05/13 12:24:42;;;;;;;8.48;1.20;;;;;;;21.11;31.82;98307.80;1744418;80;21095;-64
2021/05/13 12:27:17;;;;;;;6.85;1.42;;;;;;;21.08;31.76;98302.83;1741347;80;20971;-65
2021/05/13 12:29:48;;;;;;;5.17;1.27;;;;;;;21.10;32.01;98303.49;1715829;81;21627;-64
2021/05/13 12:32:34;;;;;;;7.85;1.10;;;;;;;21.20;32.14;98302.78;1710395;82;21349;-64
2021/05/13 12:35:02;;;;;;;4.90;1.20;;;;;;;21.23;32.16;98306.41;1717685;82;21592;-64
2021/05/13 12:37:28;;;;;;;4.30;1.17;;;;;;;21.14;32.35;98303.45;1683075;82;22182;-64
2021/05/13 12:39:57;;;;;;;5.25;1.30;;;;;;;21.13;32.59;98300.49;1679754;84;21037;-64
2021/05/13 12:42:33;;;;;;;4.70;1.20;;;;;;;21.27;32.64;98298.10;1717512;82;21063;-64
2021/05/13 12:45:24;;;;;;;8.53;1.12;;;;;;;21.18;32.84;98292.84;1707454;82;22371;-64
2021/05/13 12:48:02;;;;;;;4.47;0.98;;;;;;;21.15;32.70;98296.35;1700249;81;21191;-63
2021/05/13 12:50:32;;;;;;;6.30;1.10;;;;;;;21.19;33.06;98295.80;1708336;81;21032;-64
2021/05/13 12:53:20;;;;;;;4.08;1.42;;;;;;;21.44;33.10;98287.22;1708953;82;21635;-64
2021/05/13 12:55:48;;;;;;;6.12;1.12;;;;;;;21.68;33.06;98282.74;1705063;82;21052;-64
2021/05/13 12:58:18;;;;;;;2.65;1.27;;;;;;;21.70;33.24;98285.20;1711029;82;21123;-63
2021/05/13 13:00:56;;;;;;;5.28;1.10;;;;;;;21.91;33.04;98288.02;1707265;82;21686;-64
2021/05/13 13:03:41;;;;;;;5.58;1.22;;;;;;;22.10;33.11;98284.85;1718741;82;21194;-64
2021/05/13 13:06:14;;;;;;;3.22;1.35;;;;;;;22.28;32.80;98286.36;1710257;82;21039;-64
2021/05/13 13:08:51;;;;;;;5.37;1.12;;;;;;;22.32;32.89;98283.65;1706758;82;21076;-63
2021/05/13 13:11:39;;;;;;;4.83;0.98;;;;;;;22.54;32.82;98280.58;1684531;83;21621;-64
2021/05/13 13:14:25;;;;;;;6.95;1.37;;;;;;;22.69;32.58;98279.27;1688167;83;21901;-64
2021/05/13 13:16:53;;;;;;;4.85;0.93;;;;;;;22.53;32.38;98278.44;1686975;83;21597;-64
2021/05/13 13:19:21;;;;;;;5.55;1.15;;;;;;;22.49;32.35;98279.83;1684562;83;21502;-64
2021/05/13 13:22:02;;;;;;;17.10;1.67;;;;;;;22.32;32.00;98280.98;1690557;83;21164;-64
2021/05/13 13:26:34;;;;;;;3.40;0.70;;;;;;;22.04;31.83;98282.92;1791888;78;22340;-64
2021/05/13 13:29:01;;;;;;;8.85;1.60;;;;;;;21.84;31.97;98295.05;1765502;80;21049;-63
2021/05/13 13:31:35;;;;;;;6.17;1.25;;;;;;;21.61;31.77;98293.23;1771839;80;22179;-64
2021/05/13 13:33:56;;;;;;;3.92;1.22;;;;;;;21.37;31.89;98292.08;1765874;79;21079;-64
2021/05/13 13:36:23;;;;;;;4.83;1.10;;;;;;;21.24;31.95;98292.13;1766997;80;20988;-64
2021/05/13 13:38:50;;;;;;;9.63;2.12;;;;;;;21.26;31.89;98293.77;1771319;80;20964;-63
2021/05/13 13:41:17;;;;;;;11.18;1.95;;;;;;;20.97;31.72;98297.92;1700811;82;20999;-64
2021/05/13 13:43:45;;;;;;;3.50;0.93;;;;;;;20.73;31.90;98290.91;1721314;82;21694;-64
2021/05/13 13:46:12;;;;;;;5.10;1.32;;;;;;;20.55;31.99;98293.78;1723001;82;21033;-65
2021/05/13 13:48:39;;;;;;;3.02;0.85;;;;;;;20.45;32.11;98298.44;1707948;81;20948;-64
2021/05/13 13:51:05;;;;;;;2.08;0.82;;;;;;;20.61;32.26;98294.41;1712365;83;26724;-64
2021/05/13 13:53:32;;;;;;;2.65;1.00;;;;;;;20.86;32.24;98293.00;1732551;80;21572;-64
2021/05/13 13:56:02;;;;;;;7.47;1.07;;;;;;;20.94;32.21;98282.34;1721074;82;21504;-64
2021/05/13 13:58:32;;;;;;;2.37;1.05;;;;;;;21.09;32.10;98284.61;1729422;82;21102;-64
2021/05/13 14:01:02;;;;;;;2.65;1.15;;;;;;;21.18;32.01;98285.37;1724235;82;21020;-64
2021/05/13 14:03:30;;;;;;;3.92;0.90;;;;;;;21.28;31.99;98275.84;1721468;82;21099;-64
2021/05/13 14:05:57;;;;;;;2.60;0.90;;;;;;;21.42;31.86;98275.12;1721124;82;21017;-65
2021/05/13 14:08:29;;;;;;;2.37;0.90;;;;;;;21.40;31.95;98269.18;1724580;82;21036;-64
2021/05/13 14:10:55;;;;;;;4.97;1.00;;;;;;;21.42;31.86;98275.94;1725752;82;21024;-65
2021/05/13 14:13:22;;;;;;;7.05;1.02;;;;;;;21.45;31.80;98266.80;1720259;82;21058;-64
2021/05/13 14:15:54;;;;;;;2.10;0.70;;;;;;;21.50;31.90;98272.41;1736476;80;21024;-64
2021/05/13 14:18:35;;;;;;;6.25;1.00;;;;;;;21.67;32.12;98257.98;1714993;82;20988;-64
2021/05/13 14:20:58;;;;;;;7.85;0.90;;;;;;;21.88;32.02;98251.19;1684253;83;20996;-64
2021/05/13 14:23:34;;;;;;;3.15;0.80;;;;;;;22.00;31.95;98265.67;1685361;83;21122;-64
2021/05/13 14:26:05;;;;;;;4.47;1.22;;;;;;;22.04;31.89;98258.16;1737247;81;21130;-65
2021/05/13 14:28:32;;;;;;;7.58;1.12;;;;;;;21.91;31.53;98257.46;1740281;81;21000;-65
2021/05/13 14:30:59;;;;;;;3.62;0.80;;;;;;;21.82;31.55;98262.53;1737388;81;21008;-62
2021/05/13 14:33:25;;;;;;;2.20;0.68;;;;;;;21.79;31.64;98257.55;1739239;81;21883;-63
2021/05/13 14:35:53;;;;;;;5.28;1.22;;;;;;;21.82;31.72;98262.53;1737649;80;21012;-62
2021/05/13 14:38:19;;;;;;;3.15;0.68;;;;;;;21.77;31.45;98266.23;1720587;82;21684;-62
2021/05/13 14:40:47;;;;;;;12.82;1.20;;;;;;;21.44;31.50;98273.13;1706858;82;21084;-63
2021/05/13 14:43:14;;;;;;;7.87;1.20;;;;;;;21.14;31.44;98272.94;1690702;82;21582;-62
2021/05/13 14:45:41;;;;;;;3.52;1.02;;;;;;;20.82;31.48;98277.94;1724495;81;21503;-62
2021/05/13 14:51:08;;;;;;;3.33;0.90;;;;;;;20.24;31.71;98260.54;1741444;81;20978;-62
2021/05/13 14:53:35;;;;;;;5.30;1.10;;;;;;;20.08;31.88;98268.02;1739515;80;21039;-61
2021/05/13 14:56:01;;;;;;;3.60;0.93;;;;;;;20.02;32.07;98273.99;1735832;81;21100;-62
2021/05/13 14:58:28;;;;;;;8.78;1.15;;;;;;;19.95;32.10;98270.37;1736493;81;21025;-61
2021/05/13 15:00:56;;;;;;;3.83;1.07;;;;;;;19.83;32.28;98270.72;1741856;80;21571;-61
2021/05/13 15:03:26;;;;;;;4.95;1.10;;;;;;;19.62;32.32;98265.06;1739202;81;21734;-62
2021/05/13 15:05:51;;;;;;;4.70;1.30;;;;;;;19.44;32.91;98271.34;1742592;80;21033;-62
2021/05/13 15:08:18;;;;;;;5.65;1.60;;;;;;;19.35;32.81;98268.84;1740709;81;21820;-61
2021/05/13 15:10:44;;;;;;;4.60;0.95;;;;;;;19.30;33.00;98264.05;1743352;81;21036;-61
2021/05/13 15:13:11;;;;;;;7.15;1.00;;;;;;;19.16;33.15;98265.52;1743984;81;21029;-62
2021/05/13 15:15:39;;;;;;;3.25;0.80;;;;;;;18.93;33.38;98275.89;1740360;81;20988;-62
2021/05/13 15:18:06;;;;;;;1.90;0.82;;;;;;;18.72;33.64;98275.44;1744551;80;21101;-61
2021/05/13 15:20:33;;;;;;;6.20;1.05;;;;;;;18.53;33.82;98264.12;1741695;81;21041;-62
2021/05/13 15:23:00;;;;;;;5.92;1.12;;;;;;;18.36;34.09;98261.07;1717588;81;21677;-62
2021/05/13 15:25:27;;;;;;;21.42;1.52;;;;;;;18.31;34.43;98256.74;1736344;81;21031;-62
2021/05/13 15:27:54;;;;;;;6.37;1.10;;;;;;;18.28;34.60;98251.78;1735857;81;20981;-61
2021/05/13 15:30:22;;;;;;;2.70;0.90;;;;;;;18.28;34.93;98267.12;1739410;81;21056;-62
2021/05/13 15:32:49;;;;;;;5.22;0.90;;;;;;;18.24;35.08;98260.52;1737507;80;20947;-61
2021/05/13 15:35:56;;;;;;;2.70;1.15;;;;;;;18.29;35.36;98248.99;1791419;78;22735;-62
2021/05/13 15:38:23;;;;;;;4.85;1.32;;;;;;;18.25;35.47;98252.09;1765637;80;20999;-61
2021/05/13 15:41:44;;;;;;;4.10;1.30;;;;;;;18.29;35.76;98241.56;1831790;77;22326;-61
2021/05/13 15:46:44;;;;;;;4.30;1.45;;;;;;;18.34;36.21;98247.17;1820348;77;22325;-61
2021/05/13 15:49:11;;;;;;;9.30;1.20;;;;;;;18.34;36.54;98251.14;1796094;78;20989;-61
2021/05/13 15:51:39;;;;;;;5.03;1.70;;;;;;;18.38;36.60;98251.17;1780792;78;21198;-62
2021/05/13 15:54:09;;;;;;;2.22;1.32;;;;;;;18.33;36.72;98254.78;1770130;78;21651;-61
2021/05/13 15:56:37;;;;;;;1.45;0.90;;;;;;;18.27;36.96;98255.41;1791591;78;21636;-61
2021/05/13 15:59:07;;;;;;;5.05;1.75;;;;;;;18.21;37.29;98247.63;1791810;78;20984;-62
2021/05/13 16:01:33;;;;;;;4.45;1.40;;;;;;;18.17;37.38;98257.33;1785044;78;20968;-62
2021/05/13 16:04:00;;;;;;;4.72;1.02;;;;;;;18.11;37.57;98241.11;1791799;77;21220;-62
2021/05/13 16:06:27;;;;;;;7.22;1.30;;;;;;;18.10;37.87;98260.60;1791942;77;20995;-61
2021/05/13 16:08:54;;;;;;;8.40;1.30;;;;;;;18.13;37.88;98250.22;1787166;78;20966;-61
2021/05/13 16:11:23;;;;;;;6.05;1.30;;;;;;;18.10;38.07;98249.21;1794019;77;21045;-61
2021/05/13 16:13:49;;;;;;;6.03;1.47;;;;;;;18.01;38.22;98248.34;1792666;78;21063;-61
2021/05/13 16:16:17;;;;;;;9.00;1.55;;;;;;;17.99;38.33;98242.38;1787718;78;21596;-61
2021/05/13 16:18:46;;;;;;;5.30;1.67;;;;;;;17.98;38.50;98264.50;1796402;77;21031;-61
2021/05/13 16:21:15;;;;;;;3.62;1.20;;;;;;;17.97;38.58;98249.62;1784734;77;21122;-62
2021/05/13 16:23:43;;;;;;;6.90;1.80;;;;;;;17.97;38.67;98254.90;1798060;77;21036;-62
2021/05/13 16:26:10;;;;;;;3.87;1.37;;;;;;;17.95;38.81;98251.58;1798285;77;21003;-62
2021/05/13 16:28:37;;;;;;;;;;;;;;;17.90;38.87;98253.88;1796869;77;21060;-62
2021/05/13 16:31:08;;;;;;;5.08;1.55;;;;;;;17.87;38.98;98254.19;1782437;78;20291;-61
2021/05/13 16:33:35;;;;;;;4.85;1.75;;;;;;;17.81;39.05;98241.58;1781874;78;21127;-61
2021/05/13 16:36:05;;;;;;;3.27;1.60;;;;;;;17.73;39.22;98246.77;1793799;78;21051;-61
2021/05/13 16:38:32;;;;;;;5.17;2.10;;;;;;;17.66;39.33;98252.67;1765787;78;21060;-61
2021/05/13 16:40:59;;;;;;;3.60;1.65;;;;;;;17.59;39.48;98245.04;1789771;78;21815;-61
2021/05/13 16:43:26;;;;;;;8.38;1.60;;;;;;;17.51;39.53;98250.25;1791973;78;21119;-61
2021/05/13 16:45:53;;;;;;;7.65;1.98;;;;;;;17.44;39.87;98247.87;1785067;78;20976;-61
2021/05/13 16:48:21;;;;;;;7.72;1.65;;;;;;;17.35;39.86;98254.06;1795465;78;21060;-62
2021/05/13 16:50:49;;;;;;;6.05;1.47;;;;;;;17.30;40.08;98249.72;1791227;78;20948;-62
2021/05/13 16:53:16;;;;;;;5.60;1.62;;;;;;;17.22;40.22;98251.32;1789051;78;21664;-61
2021/05/13 16:56:07;;;;;;;5.03;1.90;;;;;;;17.19;40.33;98244.17;1788389;78;22794;-61
2021/05/13 16:58:33;;;;;;;;;;;;;;;16.98;40.52;98228.66;1773520;79;21037;-62
2021/05/13 17:01:01;;;;;;;12.23;1.82;;;;;;;17.04;40.58;98243.05;1764782;80;21042;-61
2021/05/13 17:03:28;;;;;;;6.50;1.95;;;;;;;17.01;40.78;98249.45;1768188;79;21024;-62
2021/05/13 17:06:01;;;;;;;5.97;2.58;;;;;;;16.99;40.81;98250.08;1769356;79;20944;-61
2021/05/13 17:08:23;;;;;;;10.98;2.17;;;;;;;16.99;40.91;98244.31;1766578;80;20970;-61
2021/05/13 17:10:50;;;;;;;8.55;1.77;;;;;;;16.99;41.18;98243.49;1768359;78;21100;-61
2021/05/13 17:13:17;;;;;;;5.83;1.60;;;;;;;16.98;41.16;98249.75;1768684;80;21632;-62
2021/05/13 17:17:38;;;;;;;5.12;1.52;;;;;;;16.95;41.42;98242.14;1723764;78;22819;-62
2021/05/13 17:20:12;;;;;;;5.83;2.22;;;;;;;16.84;41.42;98238.40;1669846;83;21095;-62
2021/05/13 17:22:40;;;;;;;4.25;2.08;;;;;;;16.75;41.52;98240.91;1674400;84;21084;-61
2021/05/13 17:25:09;;;;;;;4.83;1.70;;;;;;;16.70;41.62;98230.47;1676431;83;21043;-62
2021/05/13 17:27:37;;;;;;;5.95;2.17;;;;;;;16.65;41.71;98232.22;1670697;83;21059;-61
2021/05/13 17:30:13;;;;;;;7.30;1.72;;;;;;;16.57;41.81;98226.85;1671123;84;21139;-61
2021/05/13 17:32:42;;;;;;;5.75;1.65;;;;;;;16.49;41.94;98230.22;1682006;83;21137;-62
2021/05/13 17:35:12;;;;;;;10.82;2.17;;;;;;;16.41;42.06;98227.97;1665724;84;21248;-62
2021/05/13 17:37:40;;;;;;;12.03;2.35;;;;;;;16.32;42.22;98226.55;1676402;83;21043;-62
2021/05/13 17:40:11;;;;;;;5.12;2.25;;;;;;;16.24;42.30;98230.39;1676161;84;21093;-62
2021/05/13 17:42:39;;;;;;;5.17;2.02;;;;;;;16.17;42.40;98231.14;1666796;84;21126;-62
2021/05/13 17:45:08;;;;;;;2.85;1.90;;;;;;;16.09;42.55;98234.48;1662520;84;21035;-62
2021/05/13 17:47:35;;;;;;;4.15;1.47;;;;;;;16.03;42.63;98227.16;1667972;84;21065;-62
2021/05/13 17:50:24;;;;;;;6.22;1.90;;;;;;;16.00;42.85;98235.34;1792201;77;22777;-61
2021/05/13 17:52:50;;;;;;;4.37;2.37;;;;;;;15.88;42.93;98237.33;1766491;79;22108;-61
2021/05/13 17:55:18;;;;;;;7.40;2.05;;;;;;;15.82;43.03;98240.50;1771178;80;21091;-61
2021/05/13 17:57:46;;;;;;;5.55;1.82;;;;;;;15.74;43.18;98238.59;1770824;79;21066;-61
2021/05/13 18:00:14;;;;;;;;;;;;;;;15.65;43.29;98247.28;1766443;80;20998;-61
2021/05/13 18:02:42;;;;;;;10.68;2.87;;;;;;;15.55;43.55;98246.48;1773583;79;20252;-61
2021/05/13 18:05:14;;;;;;;4.20;1.67;;;;;;;15.36;43.68;98258.66;1767786;80;21055;-61
2021/05/13 18:07:42;;;;;;;3.77;1.95;;;;;;;15.26;43.87;98260.45;1764808;79;21057;-61
2021/05/13 18:10:14;;;;;;;3.40;1.37;;;;;;;15.15;44.04;98252.69;1766173;79;21038;-61
2021/05/13 18:12:42;;;;;;;3.20;1.45;;;;;;;15.06;44.21;98258.78;1766838;80;21525;-61
2021/05/13 18:15:12;;;;;;;3.42;1.40;;;;;;;14.96;44.24;98249.09;1765898;80;21039;-61
2021/05/13 18:17:40;;;;;;;2.42;1.32;;;;;;;14.89;44.28;98240.08;1768391;80;20989;-61